Time;durP1;ratioP1;P1;durP2;ratioP2;P2;SDS_P1;SDS_P2;PMS_P1;PMS_P2;Temp;Humidity;BMP_temperature;BMP_pressure;BME280_temperature;BME280_humidity;BME280_pressure;Samples;Min_cycle;Max_cycle;Signal;HPM_P1;HPM_P2
2023/10/26 00:01:23;;;;;;;1.53;1.37;;;12.50;98.00;;;;;;5072032;28;20616;-88
2023/10/26 00:03:50;;;;;;;1.40;1.40;;;12.60;98.00;;;;;;5072015;28;20436;-89
2023/10/26 00:06:18;;;;;;;1.93;1.40;;;12.60;98.00;;;;;;5071494;28;20501;-88
2023/10/26 00:08:45;;;;;;;1.67;1.40;;;12.60;98.00;;;;;;5071611;28;20989;-87
2023/10/26 00:11:12;;;;;;;1.90;1.40;;;12.70;98.00;;;;;;5071853;28;20536;-88
2023/10/26 00:13:39;;;;;;;2.43;1.40;;;12.70;98.00;;;;;;5071380;28;20483;-88
2023/10/26 00:16:07;;;;;;;1.60;1.40;;;12.70;98.00;;;;;;5071151;28;20516;-88
2023/10/26 00:18:34;;;;;;;1.60;1.57;;;12.80;98.00;;;;;;5074668;28;20876;-88
2023/10/26 00:21:01;;;;;;;1.40;1.37;;;12.80;98.00;;;;;;5075356;28;20532;-88
2023/10/26 00:23:29;;;;;;;1.63;1.30;;;12.80;98.00;;;;;;5075609;28;20944;-88
2023/10/26 00:25:57;;;;;;;1.63;1.40;;;12.90;98.00;;;;;;5074758;28;20466;-88
2023/10/26 00:28:24;;;;;;;1.70;1.50;;;12.90;98.00;;;;;;5075755;28;20532;-88
2023/10/26 00:30:51;;;;;;;2.13;1.60;;;12.90;98.00;;;;;;5075737;28;20479;-87
2023/10/26 00:33:18;;;;;;;1.80;1.40;;;12.90;98.00;;;;;;5075356;28;20905;-88
2023/10/26 00:35:45;;;;;;;1.97;1.50;;;12.80;98.00;;;;;;5074907;28;20481;-88
2023/10/26 00:38:12;;;;;;;2.17;1.50;;;12.90;98.00;;;;;;5075180;28;20518;-88
2023/10/26 00:40:40;;;;;;;6.07;1.60;;;12.80;98.00;;;;;;5074902;28;20551;-88
2023/10/26 00:43:07;;;;;;;1.90;1.50;;;12.80;98.00;;;;;;5074991;28;20538;-88
2023/10/26 00:45:36;;;;;;;1.77;1.40;;;12.80;98.00;;;;;;5074221;28;20466;-88
2023/10/26 00:48:05;;;;;;;2.27;1.40;;;12.90;98.00;;;;;;5075158;28;20498;-87
2023/10/26 00:50:33;;;;;;;7.50;1.40;;;12.90;98.00;;;;;;5074840;28;20546;-88
2023/10/26 00:53:01;;;;;;;1.37;1.20;;;12.90;98.00;;;;;;5074982;28;20457;-88
2023/10/26 00:55:28;;;;;;;1.70;1.50;;;12.90;98.00;;;;;;5074770;28;20468;-88
2023/10/26 00:57:56;;;;;;;1.50;1.43;;;12.90;98.00;;;;;;5075081;28;20802;-88
2023/10/26 01:00:24;;;;;;;1.90;1.50;;;12.90;98.00;;;;;;5074637;28;20465;-87
2023/10/26 01:02:51;;;;;;;3.33;1.50;;;12.90;98.00;;;;;;5074754;28;20461;-88
2023/10/26 01:05:18;;;;;;;2.00;1.50;;;12.90;98.00;;;;;;5074662;28;20945;-88
2023/10/26 01:07:45;;;;;;;2.80;1.50;;;12.90;98.00;;;;;;5073986;28;20465;-88
2023/10/26 01:10:12;;;;;;;2.67;1.50;;;12.90;98.00;;;;;;5074153;28;20791;-87
2023/10/26 01:12:39;;;;;;;1.40;1.30;;;12.90;98.00;;;;;;5074364;28;20461;-88
2023/10/26 01:15:09;;;;;;;3.47;1.33;;;12.90;98.00;;;;;;5074613;28;20520;-87
2023/10/26 01:17:36;;;;;;;1.40;1.40;;;12.90;98.00;;;;;;5074003;28;20437;-88
2023/10/26 01:20:05;;;;;;;1.60;1.47;;;12.90;98.00;;;;;;5074993;28;20456;-89
2023/10/26 01:22:34;;;;;;;4.07;1.60;;;12.80;98.00;;;;;;5074319;28;20458;-88
2023/10/26 01:25:01;;;;;;;1.97;1.50;;;12.80;98.00;;;;;;5074313;28;20462;-87
2023/10/26 01:27:28;;;;;;;1.80;1.50;;;12.80;98.00;;;;;;5073755;28;20944;-88
2023/10/26 01:29:55;;;;;;;1.70;1.50;;;12.80;98.00;;;;;;5073043;28;20859;-87
2023/10/26 01:32:22;;;;;;;1.90;1.50;;;12.80;98.00;;;;;;5074094;28;20869;-87
2023/10/26 01:34:49;;;;;;;1.73;1.40;;;12.80;98.00;;;;;;5074234;28;20559;-87
2023/10/26 01:37:16;;;;;;;2.47;1.60;;;12.70;98.00;;;;;;5073671;28;20461;-87
2023/10/26 01:39:45;;;;;;;4.30;1.50;;;12.80;98.00;;;;;;5071492;28;20471;-89
2023/10/26 01:42:12;;;;;;;1.90;1.50;;;12.70;98.00;;;;;;5074277;28;20503;-89
2023/10/26 01:44:39;;;;;;;5.00;1.50;;;12.80;98.00;;;;;;5074121;28;20455;-89
2023/10/26 01:47:07;;;;;;;1.70;1.50;;;12.80;98.00;;;;;;5073946;28;20546;-89
2023/10/26 01:49:34;;;;;;;1.73;1.57;;;12.70;98.00;;;;;;5075534;28;20459;-87
2023/10/26 01:52:01;;;;;;;1.93;1.50;;;12.80;98.00;;;;;;5074183;28;20527;-87
2023/10/26 01:54:28;;;;;;;1.77;1.50;;;12.80;98.00;;;;;;5073484;28;20540;-87
2023/10/26 01:56:58;;;;;;;2.27;1.80;;;12.70;98.00;;;;;;5073397;28;20449;-88
2023/10/26 01:59:25;;;;;;;1.63;1.40;;;12.70;98.00;;;;;;5073662;28;20499;-88
2023/10/26 02:01:52;;;;;;;3.70;1.43;;;12.70;98.00;;;;;;5073524;28;21014;-88
2023/10/26 02:04:19;;;;;;;2.23;1.60;;;12.70;98.00;;;;;;5073821;28;20454;-88
2023/10/26 02:06:46;;;;;;;2.57;1.73;;;12.60;98.00;;;;;;5072906;28;20517;-88
2023/10/26 02:09:13;;;;;;;2.60;1.50;;;12.60;98.00;;;;;;5073821;28;20488;-88
2023/10/26 02:11:41;;;;;;;5.57;1.50;;;12.60;98.00;;;;;;5073873;28;20477;-87
2023/10/26 02:14:09;;;;;;;2.20;1.40;;;12.60;98.00;;;;;;5073503;28;20902;-87
2023/10/26 02:16:36;;;;;;;1.53;1.50;;;12.50;98.00;;;;;;5072698;28;20465;-88
2023/10/26 02:19:03;;;;;;;1.40;1.40;;;12.60;98.00;;;;;;5073616;28;20461;-88
2023/10/26 02:21:30;;;;;;;2.23;1.50;;;12.60;98.00;;;;;;5073282;28;20480;-87
2023/10/26 02:23:57;;;;;;;2.83;1.53;;;12.60;98.00;;;;;;5073024;28;20462;-88
2023/10/26 02:26:24;;;;;;;2.17;1.30;;;12.60;98.00;;;;;;5072862;28;20450;-88
2023/10/26 02:28:51;;;;;;;2.53;1.40;;;12.60;98.00;;;;;;5073447;28;21020;-88
2023/10/26 02:31:19;;;;;;;2.23;1.50;;;12.50;98.00;;;;;;5072997;28;20492;-88
2023/10/26 02:33:46;;;;;;;3.20;1.60;;;12.50;98.00;;;;;;5072929;28;20452;-88
2023/10/26 02:36:13;;;;;;;2.33;1.60;;;12.50;98.00;;;;;;5072228;28;20461;-86
2023/10/26 02:38:40;;;;;;;1.37;1.37;;;12.50;98.00;;;;;;5072891;28;20452;-88
2023/10/26 02:41:07;;;;;;;1.80;1.40;;;12.50;98.00;;;;;;5072373;28;20491;-87
2023/10/26 02:43:39;;;;;;;1.50;1.40;;;12.50;98.00;;;;;;5072938;28;20466;-88
2023/10/26 02:46:08;;;;;;;1.90;1.43;;;12.50;98.00;;;;;;5072181;28;20470;-87
2023/10/26 02:48:37;;;;;;;2.30;1.60;;;12.40;98.00;;;;;;5072800;28;20451;-88
2023/10/26 02:51:04;;;;;;;2.13;1.47;;;12.40;98.00;;;;;;5072686;28;20477;-87
2023/10/26 02:53:32;;;;;;;1.70;1.40;;;12.40;98.00;;;;;;5072907;28;20821;-88
2023/10/26 02:55:59;;;;;;;1.47;1.30;;;12.40;98.00;;;;;;5071987;28;20571;-88
2023/10/26 02:58:26;;;;;;;1.70;1.50;;;12.40;98.00;;;;;;5072605;28;20461;-88
2023/10/26 03:00:54;;;;;;;2.27;1.60;;;12.40;98.00;;;;;;5072549;28;20502;-87
2023/10/26 03:03:21;;;;;;;1.80;1.50;;;12.40;98.00;;;;;;5072758;28;21018;-88
2023/10/26 03:05:50;;;;;;;1.50;1.30;;;12.40;98.00;;;;;;5071991;28;20961;-87
2023/10/26 03:08:16;;;;;;;2.13;1.63;;;12.40;98.00;;;;;;5073030;28;20463;-88
2023/10/26 03:10:44;;;;;;;1.63;1.40;;;12.40;98.00;;;;;;5072329;28;20477;-88
2023/10/26 03:13:11;;;;;;;1.53;1.37;;;12.40;98.00;;;;;;5072575;28;20516;-87
2023/10/26 03:15:38;;;;;;;6.40;1.50;;;12.30;98.00;;;;;;5071577;28;20488;-88
2023/10/26 03:18:06;;;;;;;1.70;1.40;;;12.30;98.00;;;;;;5072609;28;20467;-87
2023/10/26 03:20:34;;;;;;;2.60;1.47;;;12.40;98.00;;;;;;5071941;28;20478;-88
2023/10/26 03:23:02;;;;;;;2.23;1.60;;;12.30;98.00;;;;;;5072349;28;20521;-88
2023/10/26 03:25:29;;;;;;;1.60;1.40;;;12.30;98.00;;;;;;5072058;28;20458;-88
2023/10/26 03:27:56;;;;;;;1.80;1.40;;;12.30;98.00;;;;;;5072134;28;20462;-87
2023/10/26 03:30:23;;;;;;;1.93;1.50;;;12.30;98.00;;;;;;5072210;28;20985;-88
2023/10/26 03:32:50;;;;;;;3.83;1.60;;;12.30;98.00;;;;;;5071943;28;20457;-88
2023/10/26 03:35:17;;;;;;;1.53;1.33;;;12.20;98.00;;;;;;5071987;28;20486;-88
2023/10/26 03:37:45;;;;;;;1.73;1.40;;;12.30;98.00;;;;;;5071454;28;20459;-88
2023/10/26 03:40:14;;;;;;;1.60;1.40;;;12.30;98.00;;;;;;5072269;28;20500;-88
2023/10/26 03:42:41;;;;;;;2.40;1.40;;;12.30;98.00;;;;;;5072181;28;20920;-87
2023/10/26 03:45:09;;;;;;;4.50;1.67;;;12.40;98.00;;;;;;5072230;28;20462;-87
2023/10/26 03:47:36;;;;;;;2.50;1.30;;;12.40;98.00;;;;;;5071269;28;20475;-88
2023/10/26 03:50:04;;;;;;;1.40;1.40;;;12.30;98.00;;;;;;5072069;28;20464;-87
2023/10/26 03:52:31;;;;;;;1.70;1.30;;;12.40;98.00;;;;;;5073670;28;20558;-87
2023/10/26 03:54:58;;;;;;;2.03;1.50;;;12.40;98.00;;;;;;5075870;28;20983;-87
2023/10/26 03:57:27;;;;;;;1.80;1.40;;;12.50;98.00;;;;;;5075500;28;20998;-87
2023/10/26 03:59:54;;;;;;;1.70;1.40;;;12.50;98.00;;;;;;5075911;28;20816;-87
2023/10/26 04:02:21;;;;;;;2.33;1.50;;;12.50;98.00;;;;;;5075955;28;20890;-88
2023/10/26 04:04:50;;;;;;;6.13;1.60;;;12.50;98.00;;;;;;5075989;28;20497;-87
2023/10/26 04:07:18;;;;;;;1.70;1.40;;;12.40;98.00;;;;;;5075353;28;20490;-87
2023/10/26 04:09:45;;;;;;;1.30;1.30;;;12.50;98.00;;;;;;5076103;28;20963;-87
2023/10/26 04:12:13;;;;;;;2.03;1.27;;;12.40;98.00;;;;;;5075626;28;20520;-88
2023/10/26 04:14:41;;;;;;;2.27;1.50;;;12.50;98.00;;;;;;5075944;28;20480;-87
2023/10/26 04:17:08;;;;;;;1.90;1.60;;;12.50;98.00;;;;;;5075380;28;20462;-87
2023/10/26 04:19:35;;;;;;;1.50;1.40;;;12.50;98.00;;;;;;5075622;28;20466;-88
2023/10/26 04:22:05;;;;;;;2.13;1.70;;;12.40;98.00;;;;;;5075364;28;20475;-88
2023/10/26 04:24:32;;;;;;;1.40;1.20;;;12.40;98.00;;;;;;5075607;28;20539;-87
2023/10/26 04:27:00;;;;;;;1.70;1.30;;;12.30;98.00;;;;;;5074725;28;20550;-87
2023/10/26 04:29:27;;;;;;;2.17;1.63;;;12.30;98.00;;;;;;5075576;28;20873;-88
2023/10/26 04:31:55;;;;;;;2.40;1.40;;;12.30;98.00;;;;;;5075586;28;20484;-86
2023/10/26 04:34:22;;;;;;;1.50;1.37;;;12.30;98.00;;;;;;5075136;28;20462;-87
2023/10/26 04:36:49;;;;;;;1.60;1.40;;;12.20;98.00;;;;;;5074660;28;20542;-87
2023/10/26 04:39:16;;;;;;;1.63;1.40;;;12.20;98.00;;;;;;5075330;28;20465;-87
2023/10/26 04:41:44;;;;;;;2.23;1.60;;;12.20;98.00;;;;;;5075232;28;20474;-88
2023/10/26 04:44:11;;;;;;;1.40;1.40;;;12.30;98.00;;;;;;5075194;28;20487;-87
2023/10/26 04:46:38;;;;;;;1.80;1.40;;;12.10;98.00;;;;;;5074464;28;21258;-87
2023/10/26 04:49:07;;;;;;;2.30;1.50;;;12.10;98.00;;;;;;5075331;28;20466;-88
2023/10/26 04:51:34;;;;;;;1.33;1.30;;;12.10;98.00;;;;;;5074808;28;20487;-88
2023/10/26 04:54:01;;;;;;;1.80;1.30;;;12.00;98.00;;;;;;5074785;28;20458;-88
2023/10/26 04:56:28;;;;;;;2.53;1.60;;;12.10;98.00;;;;;;5074159;28;20526;-87
2023/10/26 04:58:55;;;;;;;1.40;1.30;;;12.00;98.00;;;;;;5074888;28;20466;-87
2023/10/26 05:01:22;;;;;;;2.07;1.50;;;12.00;98.00;;;;;;5074639;28;20479;-87
2023/10/26 05:03:49;;;;;;;2.47;1.40;;;12.00;98.00;;;;;;5074545;28;20460;-87
2023/10/26 05:06:18;;;;;;;1.40;1.33;;;12.00;98.00;;;;;;5074269;28;20456;-87
2023/10/26 05:08:46;;;;;;;1.70;1.30;;;12.00;98.00;;;;;;5074601;28;20470;-87
2023/10/26 05:11:13;;;;;;;1.83;1.40;;;11.90;98.00;;;;;;5074879;28;20494;-87
2023/10/26 05:13:40;;;;;;;3.83;2.47;;;11.80;98.00;;;;;;5074617;28;20882;-88
2023/10/26 05:16:07;;;;;;;4.70;1.60;;;11.80;98.00;;;;;;5073922;28;20484;-87
2023/10/26 05:18:34;;;;;;;1.70;1.47;;;11.80;98.00;;;;;;5074610;28;20457;-88
2023/10/26 05:21:01;;;;;;;1.60;1.33;;;11.80;98.00;;;;;;5074561;28;20481;-87
2023/10/26 05:23:30;;;;;;;1.40;1.30;;;11.90;98.00;;;;;;5074403;28;20453;-88
2023/10/26 05:25:57;;;;;;;1.40;1.30;;;11.90;98.00;;;;;;5074047;28;21016;-88
2023/10/26 05:28:24;;;;;;;2.07;1.30;;;11.90;98.00;;;;;;5074163;28;20465;-88
2023/10/26 05:30:51;;;;;;;1.70;1.60;;;11.90;98.00;;;;;;5074286;28;20829;-87
2023/10/26 05:33:17;;;;;;;3.00;1.70;;;11.80;98.00;;;;;;5074229;28;20464;-87
2023/10/26 05:35:45;;;;;;;3.03;1.73;;;11.60;98.00;;;;;;5073550;28;21047;-87
2023/10/26 05:38:12;;;;;;;2.07;1.70;;;11.40;98.00;;;;;;5074107;28;20551;-88
2023/10/26 05:40:48;;;;;;;3.10;1.70;;;11.30;98.00;;;;;;5074318;28;21002;-88
2023/10/26 05:43:15;;;;;;;4.63;2.10;;;11.20;98.00;;;;;;5073837;28;20436;-88
2023/10/26 05:45:42;;;;;;;6.00;1.70;;;11.10;98.00;;;;;;5073104;28;20461;-87
2023/10/26 05:48:10;;;;;;;2.03;1.77;;;11.10;98.00;;;;;;5073780;28;21086;-87
2023/10/26 05:50:41;;;;;;;2.63;1.60;;;11.00;98.00;;;;;;5073926;28;20480;-88
2023/10/26 05:53:08;;;;;;;1.90;1.50;;;11.00;98.00;;;;;;5073684;28;20435;-87
2023/10/26 05:55:35;;;;;;;1.90;1.60;;;10.70;98.00;;;;;;5073752;28;20586;-87
2023/10/26 05:58:03;;;;;;;3.60;1.80;;;10.60;98.00;;;;;;5073549;28;20528;-86
2023/10/26 06:00:31;;;;;;;1.70;1.40;;;10.40;98.00;;;;;;5073811;28;20489;-87
2023/10/26 06:02:59;;;;;;;5.50;2.37;;;10.40;98.00;;;;;;5073651;28;20466;-86
2023/10/26 06:05:25;;;;;;;2.80;1.70;;;10.50;98.00;;;;;;5073999;28;20487;-86
2023/10/26 06:07:52;;;;;;;2.93;1.80;;;10.50;98.00;;;;;;5073859;28;20460;-86
2023/10/26 06:10:19;;;;;;;2.30;1.70;;;10.60;98.00;;;;;;5074109;28;20459;-87
2023/10/26 06:12:46;;;;;;;1.47;1.30;;;10.60;98.00;;;;;;5073831;28;20521;-86
2023/10/26 06:15:14;;;;;;;2.10;1.50;;;10.70;98.00;;;;;;5073294;28;20552;-86
2023/10/26 06:17:41;;;;;;;2.20;1.70;;;10.70;98.00;;;;;;5073042;28;20509;-87
2023/10/26 06:20:09;;;;;;;6.50;2.30;;;10.70;98.00;;;;;;5073617;28;20454;-86
2023/10/26 06:22:36;;;;;;;6.73;2.07;;;10.70;98.00;;;;;;5073718;28;20443;-87
2023/10/26 06:25:05;;;;;;;6.47;2.00;;;10.80;98.00;;;;;;5073856;28;20507;-87
2023/10/26 06:27:32;;;;;;;3.57;2.10;;;10.80;98.00;;;;;;5073346;28;20779;-86
2023/10/26 06:29:59;;;;;;;2.80;1.87;;;10.80;98.00;;;;;;5074078;28;20507;-87
2023/10/26 06:32:27;;;;;;;5.73;3.20;;;10.80;98.00;;;;;;5073589;28;20991;-86
2023/10/26 06:34:57;;;;;;;6.50;3.40;;;10.80;98.00;;;;;;5072948;28;20811;-87
2023/10/26 06:37:24;;;;;;;3.30;2.37;;;10.80;98.00;;;;;;5072835;28;20570;-87
2023/10/26 06:39:51;;;;;;;2.50;1.90;;;10.90;98.00;;;;;;5073423;28;20820;-87
2023/10/26 06:42:18;;;;;;;1.93;1.70;;;10.90;98.00;;;;;;5072947;28;20483;-87
2023/10/26 06:44:45;;;;;;;3.10;1.77;;;10.90;98.00;;;;;;5073118;28;20451;-86
2023/10/26 06:47:12;;;;;;;2.20;1.70;;;11.10;98.00;;;;;;5072844;28;20477;-86
2023/10/26 06:49:41;;;;;;;5.00;1.80;;;11.20;98.00;;;;;;5072834;28;20460;-86
2023/10/26 06:52:08;;;;;;;2.67;1.60;;;11.20;98.00;;;;;;5072643;28;20479;-87
2023/10/26 06:54:35;;;;;;;4.97;1.93;;;11.40;98.00;;;;;;5072984;28;20459;-87
2023/10/26 06:57:02;;;;;;;2.80;1.90;;;11.40;98.00;;;;;;5072450;28;20471;-87
2023/10/26 06:59:29;;;;;;;3.17;2.10;;;11.20;98.00;;;;;;5072925;28;20465;-87
2023/10/26 07:01:57;;;;;;;2.23;1.60;;;11.20;98.00;;;;;;5072631;28;20497;-87
2023/10/26 07:04:24;;;;;;;1.93;1.50;;;11.30;98.00;;;;;;5072679;28;20462;-87
2023/10/26 07:06:52;;;;;;;4.90;2.07;;;11.30;98.00;;;;;;5071270;28;20455;-87
2023/10/26 07:09:19;;;;;;;5.57;2.83;;;11.30;98.00;;;;;;5072429;28;20460;-88
2023/10/26 07:11:46;;;;;;;6.33;3.10;;;11.30;98.00;;;;;;5072260;28;20480;-88
2023/10/26 07:14:13;;;;;;;4.10;2.50;;;11.30;98.00;;;;;;5072918;28;20807;-87
2023/10/26 07:16:40;;;;;;;2.07;1.57;;;11.50;98.00;;;;;;5072181;28;20907;-88
2023/10/26 07:19:07;;;;;;;3.80;1.70;;;11.50;98.00;;;;;;5072677;28;20448;-87
2023/10/26 07:21:36;;;;;;;2.60;1.67;;;11.40;98.00;;;;;;5071836;28;21018;-87
2023/10/26 07:24:05;;;;;;;2.90;1.40;;;11.40;98.00;;;;;;5071702;28;20838;-87
2023/10/26 07:26:33;;;;;;;2.40;1.70;;;11.40;98.00;;;;;;5071865;28;20510;-88
2023/10/26 07:29:00;;;;;;;3.43;1.50;;;11.40;98.00;;;;;;5072716;28;20546;-88
2023/10/26 07:31:27;;;;;;;2.30;1.83;;;11.50;98.00;;;;;;5072482;28;20589;-88
2023/10/26 07:33:54;;;;;;;3.67;1.93;;;11.80;98.00;;;;;;5072452;28;20474;-88
2023/10/26 07:36:23;;;;;;;2.23;1.60;;;11.90;98.00;;;;;;5071621;28;20573;-88
2023/10/26 07:38:50;;;;;;;6.00;1.90;;;12.10;98.00;;;;;;5072184;28;20849;-88
2023/10/26 07:41:18;;;;;;;2.17;1.63;;;12.00;98.00;;;;;;5072066;28;20488;-87
2023/10/26 07:43:45;;;;;;;2.50;1.90;;;11.90;98.00;;;;;;5072701;28;20449;-88
2023/10/26 07:46:12;;;;;;;2.17;1.70;;;11.90;98.00;;;;;;5071854;28;20516;-87
2023/10/26 07:48:40;;;;;;;4.10;2.00;;;12.00;98.00;;;;;;5072299;28;20454;-87
2023/10/26 07:51:07;;;;;;;2.93;2.20;;;12.10;98.00;;;;;;5072315;28;20513;-87
2023/10/26 07:53:34;;;;;;;3.43;2.03;;;12.20;98.00;;;;;;5071852;28;20456;-86
2023/10/26 07:56:01;;;;;;;3.10;2.50;;;12.10;98.00;;;;;;5071381;28;20491;-87
2023/10/26 07:58:32;;;;;;;5.70;2.50;;;12.10;98.00;;;;;;5072550;28;20461;-88
2023/10/26 08:00:59;;;;;;;3.10;2.33;;;12.10;98.00;;;;;;5072423;28;20488;-88
2023/10/26 08:03:27;;;;;;;4.70;2.67;;;12.20;98.00;;;;;;5071477;28;20991;-88
2023/10/26 08:06:00;;;;;;;4.03;2.20;;;12.30;98.00;;;;;;5071853;28;20880;-90
2023/10/26 08:08:27;;;;;;;3.07;2.40;;;12.50;98.00;;;;;;5072183;28;20464;-91
2023/10/26 08:10:54;;;;;;;3.03;2.30;;;12.60;98.00;;;;;;5072345;28;20478;-86
2023/10/26 08:13:22;;;;;;;4.67;2.60;;;12.50;98.00;;;;;;5071500;28;20457;-88
2023/10/26 08:15:50;;;;;;;4.13;2.60;;;12.40;98.00;;;;;;5071869;28;20484;-89
2023/10/26 08:18:17;;;;;;;6.90;2.33;;;12.40;98.00;;;;;;5072155;28;20465;-88
2023/10/26 08:20:51;;;;;;;4.33;2.67;;;12.50;98.00;;;;;;5072303;28;20534;-89
2023/10/26 08:23:18;;;;;;;3.40;2.30;;;12.40;98.00;;;;;;5072286;28;21212;-88
2023/10/26 08:25:45;;;;;;;4.00;2.40;;;12.50;98.00;;;;;;5071549;28;20449;-88
2023/10/26 08:28:12;;;;;;;3.67;2.23;;;12.50;98.00;;;;;;5071321;28;20875;-88
2023/10/26 08:30:39;;;;;;;2.67;1.90;;;12.50;98.00;;;;;;5072007;28;20534;-88
2023/10/26 08:33:08;;;;;;;1.60;1.50;;;12.60;98.00;;;;;;5072054;28;20446;-89
2023/10/26 08:35:35;;;;;;;2.87;2.00;;;12.70;98.00;;;;;;5071411;28;20475;-88
2023/10/26 08:38:02;;;;;;;2.60;1.93;;;12.90;98.00;;;;;;5072263;28;20806;-88
2023/10/26 08:40:29;;;;;;;3.93;2.50;;;13.10;98.00;;;;;;5075135;28;20486;-88
2023/10/26 08:42:57;;;;;;;3.57;2.87;;;13.20;98.00;;;;;;5074983;28;20449;-88
2023/10/26 08:45:27;;;;;;;4.90;2.90;;;13.30;98.00;;;;;;5075874;28;20950;-87
2023/10/26 08:47:58;;;;;;;4.77;2.50;;;13.30;98.00;;;;;;5075325;28;21028;-90
2023/10/26 08:50:27;;;;;;;5.50;2.50;;;13.30;98.00;;;;;;5075914;28;20930;-88
2023/10/26 08:52:54;;;;;;;4.57;2.47;;;13.30;98.00;;;;;;5075748;28;20440;-89
2023/10/26 08:55:21;;;;;;;6.80;2.70;;;13.30;98.00;;;;;;5075790;28;20457;-89
2023/10/26 08:57:49;;;;;;;1.80;1.80;;;13.40;98.00;;;;;;5075090;28;20488;-89
2023/10/26 09:00:19;;;;;;;2.60;1.90;;;13.40;98.00;;;;;;5074674;28;20467;-88
2023/10/26 09:02:50;;;;;;;3.20;2.10;;;13.50;98.00;;;;;;5075681;28;20516;-89
2023/10/26 09:05:17;;;;;;;2.40;2.17;;;13.60;98.00;;;;;;5075146;28;20515;-90
2023/10/26 09:07:46;;;;;;;2.47;1.80;;;13.70;98.00;;;;;;5074034;28;20446;-90
2023/10/26 09:10:13;;;;;;;1.73;1.67;;;13.70;98.00;;;;;;5075159;28;20458;-90
2023/10/26 09:12:59;;;;;;;4.80;1.83;;;13.80;98.00;;;;;;5074319;28;20497;-87
2023/10/26 09:15:26;;;;;;;2.20;1.80;;;13.80;98.00;;;;;;5075424;28;20466;-89
2023/10/26 09:17:56;;;;;;;2.20;1.63;;;13.90;98.00;;;;;;5073665;28;21220;-86
2023/10/26 09:20:25;;;;;;;2.20;1.77;;;14.00;98.00;;;;;;5074368;28;20536;-88
2023/10/26 09:22:53;;;;;;;2.93;1.87;;;14.30;98.00;;;;;;5074632;28;20965;-87
2023/10/26 09:25:20;;;;;;;3.10;1.77;;;14.60;98.00;;;;;;5074902;28;20466;-89
2023/10/26 09:27:47;;;;;;;1.97;1.80;;;14.80;98.00;;;;;;5074593;28;20454;-89
2023/10/26 09:30:26;;;;;;;1.87;1.63;;;14.80;98.00;;;;;;5074432;28;20485;-88
2023/10/26 09:32:53;;;;;;;2.47;1.90;;;14.70;98.00;;;;;;5073575;28;20466;-88
2023/10/26 09:35:27;;;;;;;2.37;1.53;;;14.60;98.00;;;;;;5073116;28;20459;-87
2023/10/26 09:37:55;;;;;;;1.73;1.70;;;14.50;98.00;;;;;;5071988;28;21020;-89
2023/10/26 09:40:23;;;;;;;3.40;2.00;;;14.40;98.00;;;;;;5073288;28;20469;-88
2023/10/26 09:42:50;;;;;;;4.30;1.50;;;14.40;98.00;;;;;;5073412;28;20857;-89
2023/10/26 09:45:19;;;;;;;3.07;2.00;;;14.40;98.00;;;;;;5073108;28;21014;-87
2023/10/26 09:47:46;;;;;;;2.80;1.80;;;14.40;98.00;;;;;;5072524;28;20467;-88
2023/10/26 09:50:14;;;;;;;2.03;1.70;;;14.30;98.00;;;;;;5072496;28;20455;-89
2023/10/26 09:52:42;;;;;;;2.73;1.87;;;14.20;98.00;;;;;;5072716;28;20548;-87
2023/10/26 09:55:11;;;;;;;3.83;2.20;;;14.20;98.00;;;;;;5072481;28;21006;-88
2023/10/26 09:57:44;;;;;;;2.17;1.70;;;14.10;98.00;;;;;;5072610;28;20665;-88
2023/10/26 10:00:13;;;;;;;2.37;1.87;;;14.00;98.00;;;;;;5072854;28;20548;-87
2023/10/26 10:02:41;;;;;;;4.37;1.50;;;14.00;98.00;;;;;;5073093;28;20557;-88
2023/10/26 10:05:38;;;;;;;1.77;1.47;;;13.90;98.00;;;;;;5073045;28;20455;-88
2023/10/26 10:08:05;;;;;;;2.70;2.10;;;13.80;98.00;;;;;;5073046;28;20463;-88
2023/10/26 10:10:35;;;;;;;1.50;1.40;;;13.80;98.00;;;;;;5072414;28;20841;-87
2023/10/26 10:13:02;;;;;;;4.33;1.83;;;13.60;98.00;;;;;;5072525;28;20872;-87
2023/10/26 10:15:38;;;;;;;1.80;1.50;;;13.50;98.00;;;;;;5072331;28;20465;-88
2023/10/26 10:18:06;;;;;;;2.30;1.70;;;13.50;98.00;;;;;;5073051;28;20481;-87
2023/10/26 10:20:34;;;;;;;3.00;2.17;;;13.30;98.00;;;;;;5072657;28;20620;-87
2023/10/26 10:23:03;;;;;;;17.23;3.53;;;13.20;98.00;;;;;;5072785;28;20453;-87
2023/10/26 10:26:01;;;;;;;4.60;2.17;;;13.20;98.00;;;;;;5072631;28;20463;-87
2023/10/26 10:28:48;;;;;;;4.47;2.00;;;13.30;98.00;;;;;;5072576;28;20456;-87
2023/10/26 10:31:40;;;;;;;2.80;1.90;;;13.40;98.00;;;;;;5072842;28;21055;-88
2023/10/26 10:34:10;;;;;;;11.30;3.80;;;13.30;98.00;;;;;;5072768;28;20830;-87
2023/10/26 10:37:07;;;;;;;7.83;2.57;;;13.30;98.00;;;;;;5071673;28;20477;-87
2023/10/26 10:39:35;;;;;;;4.53;2.60;;;13.40;98.00;;;;;;5072463;28;20462;-87
2023/10/26 10:42:04;;;;;;;6.10;3.10;;;13.30;98.00;;;;;;5071890;28;20820;-87
2023/10/26 10:44:35;;;;;;;5.00;2.50;;;13.40;98.00;;;;;;5071882;28;20516;-87
2023/10/26 10:47:02;;;;;;;3.47;2.30;;;13.30;98.00;;;;;;5072242;28;20851;-87
2023/10/26 10:49:30;;;;;;;3.10;2.30;;;13.40;98.00;;;;;;5072479;28;20464;-87
2023/10/26 10:51:57;;;;;;;4.40;2.87;;;13.30;98.00;;;;;;5072538;28;20530;-87
2023/10/26 10:54:25;;;;;;;6.90;2.60;;;13.40;98.00;;;;;;5072146;28;20483;-87
2023/10/26 10:56:52;;;;;;;2.93;2.10;;;13.20;98.00;;;;;;5071764;28;21101;-87
2023/10/26 10:59:22;;;;;;;3.77;2.10;;;13.20;98.00;;;;;;5071662;28;20511;-87
2023/10/26 11:01:50;;;;;;;3.17;2.50;;;13.30;98.00;;;;;;5072094;28;20492;-87
2023/10/26 11:04:18;;;;;;;6.00;3.17;;;13.30;98.00;;;;;;5071785;28;20515;-86
2023/10/26 11:06:46;;;;;;;4.40;2.93;;;13.30;98.00;;;;;;5071709;28;20443;-87
2023/10/26 11:09:27;;;;;;;5.27;2.70;;;13.30;98.00;;;;;;5072205;28;20800;-87
2023/10/26 11:11:54;;;;;;;4.80;2.73;;;13.30;98.00;;;;;;5072103;28;20537;-87
2023/10/26 11:14:23;;;;;;;6.03;2.77;;;13.40;98.00;;;;;;5071719;28;20457;-87
2023/10/26 11:16:51;;;;;;;4.10;2.60;;;13.40;98.00;;;;;;5070703;28;20492;-87
2023/10/26 11:19:19;;;;;;;3.20;2.60;;;13.40;98.00;;;;;;5071987;28;20480;-88
2023/10/26 11:21:46;;;;;;;6.07;3.10;;;13.60;98.00;;;;;;5071763;28;20489;-87
2023/10/26 11:24:19;;;;;;;3.90;2.40;;;13.50;98.00;;;;;;5071526;28;20829;-88
2023/10/26 11:27:07;;;;;;;5.67;2.60;;;13.40;98.00;;;;;;5071382;28;20489;-88
2023/10/26 11:29:35;;;;;;;3.83;2.77;;;13.50;98.00;;;;;;5071947;28;20456;-88
2023/10/26 11:32:02;;;;;;;3.90;2.80;;;13.70;98.00;;;;;;5072784;28;20477;-88
2023/10/26 11:34:29;;;;;;;3.87;2.50;;;13.90;98.00;;;;;;5072622;28;20495;-88
2023/10/26 11:36:57;;;;;;;3.37;2.47;;;14.00;98.00;;;;;;5071472;28;21018;-86
2023/10/26 11:39:26;;;;;;;3.63;2.67;;;14.20;98.00;;;;;;5072879;28;20783;-86
2023/10/26 11:41:54;;;;;;;4.13;2.93;;;14.30;98.00;;;;;;5072735;28;20495;-86
2023/10/26 11:44:27;;;;;;;3.10;2.50;;;14.30;98.00;;;;;;5072338;28;20511;-87
2023/10/26 11:46:59;;;;;;;3.90;2.50;;;14.30;98.00;;;;;;5071639;28;20489;-88
2023/10/26 11:49:42;;;;;;;3.43;2.50;;;14.30;98.00;;;;;;5072880;28;20454;-88
2023/10/26 11:52:09;;;;;;;3.90;2.43;;;14.40;98.00;;;;;;5071025;28;20486;-87
2023/10/26 11:54:36;;;;;;;3.47;2.27;;;14.40;98.00;;;;;;5071868;28;20793;-88
2023/10/26 11:57:04;;;;;;;2.10;1.93;;;14.60;98.00;;;;;;5071878;28;20479;-86
2023/10/26 11:59:30;;;;;;;4.60;2.30;;;14.60;98.00;;;;;;5072506;28;20463;-88
2023/10/26 12:01:59;;;;;;;3.53;2.23;;;14.60;98.00;;;;;;5072426;28;20476;-86
2023/10/26 12:04:26;;;;;;;3.57;2.40;;;14.50;98.00;;;;;;5072638;28;20514;-87
2023/10/26 12:06:53;;;;;;;5.00;2.43;;;14.50;98.00;;;;;;5072169;28;20945;-87
2023/10/26 12:09:21;;;;;;;3.37;2.50;;;14.40;98.00;;;;;;5072729;28;20466;-88
2023/10/26 12:11:48;;;;;;;3.60;2.47;;;14.40;98.00;;;;;;5071493;28;20475;-88
2023/10/26 12:14:15;;;;;;;2.57;2.03;;;14.40;98.00;;;;;;5074727;28;20466;-88
2023/10/26 12:16:42;;;;;;;3.60;2.47;;;14.30;98.00;;;;;;5075497;28;20456;-87
2023/10/26 12:19:10;;;;;;;3.50;2.53;;;14.30;98.00;;;;;;5076399;28;20885;-88
2023/10/26 12:21:37;;;;;;;3.03;2.37;;;14.40;98.00;;;;;;5076336;28;20553;-87
2023/10/26 12:24:05;;;;;;;6.47;2.90;;;14.60;98.00;;;;;;5076220;28;20447;-89
2023/10/26 12:26:32;;;;;;;3.60;2.60;;;14.80;98.00;;;;;;5075277;28;20509;-88
2023/10/26 12:28:59;;;;;;;5.27;3.00;;;15.30;98.00;;;;;;5076071;28;20458;-88
2023/10/26 12:31:26;;;;;;;3.80;2.80;;;15.70;98.00;;;;;;5075587;28;21033;-87
2023/10/26 12:33:53;;;;;;;4.80;3.00;;;16.00;98.00;;;;;;5075914;28;20448;-89
2023/10/26 12:36:21;;;;;;;3.87;3.00;;;16.20;98.00;;;;;;5075460;28;20466;-87
2023/10/26 12:38:48;;;;;;;8.00;3.10;;;16.40;98.00;;;;;;5075673;28;20485;-88
2023/10/26 12:41:15;;;;;;;4.47;2.90;;;16.50;98.00;;;;;;5075658;28;21187;-88
2023/10/26 12:43:43;;;;;;;3.80;2.73;;;16.40;98.00;;;;;;5074861;28;20468;-90
2023/10/26 12:46:10;;;;;;;2.80;2.47;;;16.20;98.00;;;;;;5074943;28;20472;-89
2023/10/26 12:48:37;;;;;;;4.53;2.80;;;16.10;98.00;;;;;;5075902;28;20463;-88
2023/10/26 12:51:04;;;;;;;3.03;2.47;;;16.10;98.00;;;;;;5075627;28;21039;-89
2023/10/26 12:53:32;;;;;;;3.03;2.30;;;15.70;98.00;;;;;;5075695;28;20467;-89